»·PEaware :: EGF907 KSBP-KLAX

EGF907 :: KSBP-KLAX

FLIGHT INFORMATION

Flight Status: Arrived
Operator:
American Eagle
More flights by this operator :: More flights under this callsign
Pilot: Ryan C. (15122)
Aircraft: EMBRAER EMB-170/175
(E170)
More flights by this aircraft type
Origin: KSBP San Luis Co Regl
United States
Destination: KLAX Los Angeles Intl
United States
More flights between these airports :: More routes between these airports
Route: RZS VTU SADDE8
File this flight plan on PilotEdge
Remarks:
Altitude:
(Current/Filed)
15,000ft
Speed:
(Current/Filed)
300kts
Departed: 20-Nov-18 03:39 PM
Arrived: 20-Nov-18 04:22 PM
Distance/Time
Traveled:
135nm/0:42
Distance/Time
To Go:
Arrived

Flight Plot

Page will automatically refresh every two minutes.

Flight plan parsing failed; only flown route is shown


Map Options




Map Legend


Flown Route
Filed Route
Departure Airport
Arrival Airport
Navaid (VOR, NDB)
Fix

Horizontal Profiles

Position Reports

Time Latitude Longitude Heading Altitude Ground
Speed
20-Nov-18 15:21 35.239304 -120.641944 121 183ft 0kts
20-Nov-18 15:22 35.239304 -120.641944 121 183ft 0kts
20-Nov-18 15:23 35.239304 -120.641944 121 183ft 0kts
20-Nov-18 15:24 35.239304 -120.641944 121 183ft 0kts
20-Nov-18 15:25 35.239304 -120.641944 121 183ft 0kts
20-Nov-18 15:26 35.239304 -120.641944 121 183ft 0kts
20-Nov-18 15:27 35.239304 -120.641944 121 183ft 0kts
20-Nov-18 15:28 35.239304 -120.641944 121 183ft 0kts
20-Nov-18 15:29 35.239304 -120.641944 121 183ft 0kts
20-Nov-18 15:30 35.239304 -120.641944 121 183ft 0kts
20-Nov-18 15:31 35.239304 -120.641944 121 183ft 0kts
20-Nov-18 15:32 35.239304 -120.641944 121 183ft 0kts
20-Nov-18 15:33 35.239304 -120.641944 121 183ft 0kts
20-Nov-18 15:34 35.239304 -120.641944 121 183ft 0kts
20-Nov-18 15:35 35.239304 -120.641944 121 183ft 0kts
20-Nov-18 15:36 35.239304 -120.641944 121 183ft 0kts
20-Nov-18 15:37 35.239304 -120.641944 121 183ft 0kts
20-Nov-18 15:38 35.238526 -120.641161 128 183ft 12kts
20-Nov-18 15:39 35.235769 -120.636114 125 183ft 19kts
20-Nov-18 15:40 35.233407 -120.632228 187 183ft 0kts
20-Nov-18 15:41 35.233395 -120.633910 304 183ft 25kts
20-Nov-18 15:42 35.258010 -120.675617 304 2377ft 199kts
20-Nov-18 15:43 35.294703 -120.713129 15 4358ft 219kts
20-Nov-18 15:44 35.291824 -120.660576 148 6507ft 211kts
20-Nov-18 15:45 35.245476 -120.615945 139 8509ft 214kts
20-Nov-18 15:46 35.198502 -120.562876 137 10532ft 240kts
20-Nov-18 15:47 35.140733 -120.495958 137 11057ft 324kts
20-Nov-18 15:48 35.072279 -120.427717 168 11050ft 322kts
20-Nov-18 15:49 34.984850 -120.449505 192 11047ft 325kts
20-Nov-18 15:50 34.898932 -120.456163 143 11047ft 322kts
20-Nov-18 15:51 34.848036 -120.366856 125 11051ft 324kts
20-Nov-18 15:52 34.805938 -120.291824 126 11052ft 324kts
20-Nov-18 15:53 34.763928 -120.217501 126 11052ft 324kts
20-Nov-18 15:54 34.712759 -120.127228 125 11055ft 323kts
20-Nov-18 15:55 34.661903 -120.037717 126 11058ft 323kts
20-Nov-18 15:56 34.610725 -119.947901 126 11060ft 323kts
20-Nov-18 15:57 34.559509 -119.858216 126 11060ft 323kts
20-Nov-18 15:58 34.508443 -119.768632 124 11059ft 324kts
20-Nov-18 15:59 34.458954 -119.677606 124 11059ft 324kts
20-Nov-18 16:00 34.409624 -119.586845 124 11058ft 324kts
20-Nov-18 16:01 34.360140 -119.496027 124 11058ft 323kts
20-Nov-18 16:02 34.310594 -119.405284 124 11057ft 323kts
20-Nov-18 16:03 34.263136 -119.318578 125 11059ft 322kts
20-Nov-18 16:04 34.217639 -119.235697 125 11058ft 322kts
20-Nov-18 16:05 34.167979 -119.145414 125 11058ft 323kts
20-Nov-18 16:06 34.118992 -119.054773 115 11045ft 325kts
20-Nov-18 16:07 34.089194 -118.951702 110 11065ft 325kts
20-Nov-18 16:08 34.062678 -118.852964 109 11074ft 324kts
20-Nov-18 16:09 34.038855 -118.751596 100 11181ft 323kts
20-Nov-18 16:10 34.028115 -118.646072 98 9762ft 301kts
20-Nov-18 16:11 34.019184 -118.551107 99 8240ft 280kts
20-Nov-18 16:12 34.010732 -118.461321 99 7133ft 267kts
20-Nov-18 16:13 34.003762 -118.387796 99 6776ft 268kts
20-Nov-18 16:14 33.994628 -118.292133 99 5447ft 261kts
20-Nov-18 16:15 33.989578 -118.220044 91 4443ft 259kts
20-Nov-18 16:16 34.011097 -118.127883 62 3190ft 237kts
20-Nov-18 16:17 33.982511 -118.098920 231 3013ft 184kts
20-Nov-18 16:18 33.976857 -118.157148 262 3055ft 184kts
20-Nov-18 16:19 33.972119 -118.207595 261 3031ft 167kts
20-Nov-18 16:20 33.967117 -118.256846 260 2483ft 138kts
20-Nov-18 16:21 33.962402 -118.302637 261 1757ft 137kts
20-Nov-18 16:22 33.958021 -118.345531 261 1101ft 126kts
20-Nov-18 16:23 33.953740 -118.386358 262 415ft 121kts
20-Nov-18 16:24 33.950324 -118.417491 247 119ft 41kts
20-Nov-18 16:25 33.947297 -118.422508 206 116ft 10kts
20-Nov-18 16:26 33.946904 -118.421696 84 116ft 11kts
20-Nov-18 16:27 33.947496 -118.415920 83 119ft 19kts
20-Nov-18 16:28 33.948226 -118.410053 84 122ft 17kts
20-Nov-18 16:29 33.947055 -118.408353 147 122ft 0kts
20-Nov-18 16:30 33.947055 -118.408353 147 122ft 0kts
20-Nov-18 16:31 33.947055 -118.408353 147 122ft 0kts
20-Nov-18 16:32 33.947055 -118.408353 147 122ft 0kts

Navigation Log

Ident Type
Flight plan parsing failed, navigation log unavailable